createdAt,value
2023-03-31T00:03:53.094Z,1.37
2023-03-31T00:09:02.538Z,1.15
2023-03-31T00:14:09.595Z,2.53
2023-03-31T00:19:22.052Z,1.70
2023-03-31T00:24:25.829Z,1.00
2023-03-31T00:29:30.146Z,1.23
2023-03-31T00:34:34.141Z,1.20
2023-03-31T00:39:39.308Z,1.02
2023-03-31T00:45:19.535Z,1.40
2023-03-31T00:50:33.213Z,1.10
2023-03-31T00:55:44.565Z,1.08
2023-03-31T01:00:51.184Z,1.10
2023-03-31T01:06:06.764Z,1.45
2023-03-31T01:11:14.899Z,0.98
2023-03-31T01:16:20.083Z,0.93
2023-03-31T01:21:52.081Z,1.30
2023-03-31T01:27:11.209Z,1.30
2023-03-31T01:32:36.550Z,1.15
2023-03-31T01:38:19.365Z,0.90
2023-03-31T01:43:31.730Z,1.17
2023-03-31T01:49:00.404Z,1.00
2023-03-31T01:54:22.132Z,1.30
2023-03-31T01:59:53.006Z,1.33
2023-03-31T02:05:06.089Z,1.05
2023-03-31T02:10:13.126Z,0.70
2023-03-31T02:15:22.924Z,1.10
2023-03-31T02:20:30.295Z,1.50
2023-03-31T02:25:43.155Z,1.20
2023-03-31T02:30:59.391Z,0.90
2023-03-31T02:36:04.525Z,0.82
2023-03-31T02:41:09.207Z,1.20
2023-03-31T02:46:13.181Z,1.05
2023-03-31T02:51:42.976Z,1.25
2023-03-31T02:57:33.738Z,1.08
2023-03-31T03:02:59.591Z,1.20
2023-03-31T03:08:20.996Z,0.98
2023-03-31T03:13:34.162Z,0.98
2023-03-31T03:18:38.177Z,1.08
2023-03-31T03:23:42.727Z,1.08
2023-03-31T03:28:46.502Z,0.80
2023-03-31T03:33:51.784Z,1.02
2023-03-31T03:38:55.495Z,0.98
2023-03-31T03:43:59.992Z,0.85
2023-03-31T03:49:03.978Z,0.70
2023-03-31T03:54:07.705Z,0.90
2023-03-31T03:59:12.601Z,0.63
2023-03-31T04:04:16.723Z,0.95
2023-03-31T04:09:20.822Z,0.68
2023-03-31T04:14:26.656Z,1.10
2023-03-31T04:19:30.728Z,0.85
2023-03-31T04:24:34.745Z,1.10
2023-03-31T04:29:38.618Z,0.90
2023-03-31T04:34:47.270Z,1.15
2023-03-31T04:39:51.439Z,0.52
2023-03-31T04:44:55.128Z,0.65
2023-03-31T04:49:58.949Z,0.98
2023-03-31T04:55:03.073Z,0.70
2023-03-31T05:00:08.515Z,0.43
2023-03-31T05:05:13.169Z,0.80
2023-03-31T05:10:17.039Z,0.88
2023-03-31T05:15:21.288Z,0.88
2023-03-31T05:20:25.414Z,0.60
2023-03-31T05:25:33.844Z,1.10
2023-03-31T05:35:41.336Z,0.50
2023-03-31T05:40:45.019Z,0.82
2023-03-31T05:45:49.005Z,0.82
2023-03-31T05:50:52.977Z,0.80
2023-03-31T05:56:02.946Z,0.77
2023-03-31T06:01:23.917Z,0.70
2023-03-31T06:06:28.596Z,0.90
2023-03-31T06:11:32.640Z,0.60
2023-03-31T06:16:36.627Z,0.88
2023-03-31T06:21:40.753Z,0.90
2023-03-31T06:26:44.801Z,1.15
2023-03-31T06:31:48.626Z,0.70
2023-03-31T06:36:52.603Z,0.63
2023-03-31T06:41:56.317Z,0.60
2023-03-31T06:47:04.609Z,0.77
2023-03-31T06:52:08.574Z,1.17
2023-03-31T06:57:12.538Z,0.50
2023-03-31T07:02:16.358Z,0.50
2023-03-31T07:07:20.447Z,0.50
2023-03-31T07:12:25.180Z,0.50
2023-03-31T07:17:29.471Z,0.60
2023-03-31T07:22:33.575Z,0.73
2023-03-31T07:27:38.579Z,0.80
2023-03-31T07:32:42.821Z,0.77
2023-03-31T07:37:49.312Z,0.47
2023-03-31T07:42:53.973Z,0.60
2023-03-31T07:47:57.808Z,0.60
2023-03-31T07:53:01.795Z,0.50
2023-03-31T07:58:05.543Z,0.90
2023-03-31T08:03:09.752Z,0.40
2023-03-31T08:08:13.928Z,0.60
2023-03-31T08:13:19.582Z,0.90
2023-03-31T08:18:23.606Z,0.50
2023-03-31T08:23:27.650Z,0.40
2023-03-31T08:28:31.827Z,0.50
2023-03-31T08:33:36.182Z,0.60
2023-03-31T08:38:42.543Z,1.00
2023-03-31T08:43:49.303Z,0.70
2023-03-31T08:48:57.858Z,1.00
2023-03-31T08:54:14.916Z,5.35
2023-03-31T08:59:33.650Z,0.80
2023-03-31T09:04:54.080Z,0.82
2023-03-31T09:10:24.008Z,0.75
2023-03-31T09:15:36.190Z,0.90
2023-03-31T09:20:45.970Z,0.57
2023-03-31T09:25:50.204Z,0.60
2023-03-31T09:30:55.426Z,1.05
2023-03-31T09:36:00.884Z,1.08
2023-03-31T09:41:06.170Z,0.45
2023-03-31T09:46:37.630Z,0.60
2023-03-31T09:51:48.100Z,0.47
2023-03-31T09:56:56.598Z,0.60
2023-03-31T10:02:04.794Z,0.40
2023-03-31T10:07:08.669Z,0.65
2023-03-31T10:12:25.411Z,0.70
2023-03-31T10:17:29.606Z,0.90
2023-03-31T10:22:34.137Z,0.70
2023-03-31T10:27:42.778Z,1.35
2023-03-31T10:32:48.848Z,1.13
2023-03-31T10:38:04.661Z,0.65
2023-03-31T10:43:30.941Z,1.13
2023-03-31T10:48:40.695Z,0.90
2023-03-31T10:53:49.020Z,1.00
2023-03-31T10:59:10.889Z,1.13
2023-03-31T11:04:27.285Z,1.02
2023-03-31T11:09:50.805Z,0.93
2023-03-31T11:15:03.190Z,1.10
2023-03-31T11:20:35.241Z,0.93
2023-03-31T11:25:45.073Z,1.33
2023-03-31T11:31:08.884Z,0.80
2023-03-31T11:36:26.759Z,1.40
2023-03-31T11:41:30.500Z,0.95
2023-03-31T11:46:55.707Z,1.13
2023-03-31T11:52:10.695Z,1.02
2023-03-31T11:57:37.984Z,0.98
2023-03-31T12:02:54.222Z,0.95
2023-03-31T12:08:06.959Z,0.80
2023-03-31T12:13:16.810Z,0.63
2023-03-31T12:18:25.790Z,0.90
2023-03-31T12:23:39.629Z,1.20
2023-03-31T12:28:46.890Z,0.95
2023-03-31T12:34:01.823Z,1.43
2023-03-31T12:39:36.286Z,1.60
2023-03-31T12:45:01.584Z,1.60
2023-03-31T12:50:30.815Z,1.73
2023-03-31T12:55:44.468Z,1.60
2023-03-31T13:01:17.156Z,0.98
2023-03-31T13:06:27.894Z,1.73
2023-03-31T13:11:37.684Z,1.23
2023-03-31T13:16:41.688Z,1.63
2023-03-31T13:21:56.985Z,1.00
2023-03-31T13:27:35.844Z,0.80
2023-03-31T13:32:40.706Z,1.05
2023-03-31T13:38:20.054Z,0.80
2023-03-31T13:43:42.474Z,1.17
2023-03-31T13:49:05.692Z,1.48
2023-03-31T13:54:28.077Z,1.40
2023-03-31T13:59:50.964Z,1.02
2023-03-31T14:05:31.689Z,0.95
2023-03-31T14:10:54.240Z,1.30
2023-03-31T14:16:01.555Z,1.30
2023-03-31T14:21:40.548Z,1.50
2023-03-31T14:26:59.635Z,1.10
2023-03-31T14:32:25.078Z,1.38
2023-03-31T14:37:30.053Z,1.90
2023-03-31T14:42:40.284Z,2.03
2023-03-31T14:47:44.290Z,0.82
2023-03-31T14:52:50.228Z,1.15
2023-03-31T14:57:55.678Z,1.45
2023-03-31T15:03:05.792Z,0.93
2023-03-31T15:08:18.622Z,1.30
2023-03-31T15:13:34.659Z,1.30
2023-03-31T15:18:40.839Z,1.30
2023-03-31T15:23:44.852Z,1.40
2023-03-31T15:28:58.453Z,1.25
2023-03-31T15:34:20.999Z,0.90
2023-03-31T15:39:27.956Z,1.80
2023-03-31T15:44:47.159Z,1.40
2023-03-31T15:50:14.573Z,1.90
2023-03-31T15:55:24.584Z,1.35
2023-03-31T16:00:53.269Z,1.50
2023-03-31T16:06:01.228Z,1.48
2023-03-31T16:11:16.564Z,1.15
2023-03-31T16:16:24.441Z,1.70
2023-03-31T16:21:34.733Z,1.00
2023-03-31T16:26:39.367Z,1.13
2023-03-31T16:31:43.464Z,1.48
2023-03-31T16:36:49.970Z,1.20
2023-03-31T16:41:53.991Z,1.27
2023-03-31T16:46:57.856Z,2.10
2023-03-31T16:52:02.614Z,1.63
2023-03-31T16:57:07.615Z,1.67
2023-03-31T17:02:12.809Z,1.40
2023-03-31T17:07:16.943Z,1.30
2023-03-31T17:12:22.877Z,1.48
2023-03-31T17:17:27.050Z,1.10
2023-03-31T17:22:31.428Z,1.48
2023-03-31T17:27:36.281Z,1.17
2023-03-31T17:32:41.884Z,1.25
2023-03-31T17:37:46.355Z,1.45
2023-03-31T17:42:50.641Z,2.17
2023-03-31T17:47:56.558Z,1.60
2023-03-31T17:53:09.459Z,1.42
2023-03-31T17:58:14.433Z,1.52
2023-03-31T18:03:18.380Z,1.80
2023-03-31T18:08:22.698Z,1.63
2023-03-31T18:13:26.669Z,0.93
2023-03-31T18:18:30.731Z,1.40
2023-03-31T18:23:36.388Z,1.70
2023-03-31T18:28:41.447Z,1.50
2023-03-31T18:33:45.861Z,1.60
2023-03-31T18:38:52.047Z,1.27
2023-03-31T18:43:56.138Z,1.73
2023-03-31T18:49:00.126Z,2.53
2023-03-31T18:54:04.618Z,2.00
2023-03-31T18:59:08.527Z,2.13
2023-03-31T19:04:13.142Z,1.75
2023-03-31T19:09:16.974Z,2.40
2023-03-31T19:14:20.851Z,1.70
2023-03-31T19:19:25.979Z,1.90
2023-03-31T19:24:30.148Z,2.10
2023-03-31T19:29:36.024Z,2.05
2023-03-31T19:34:39.793Z,2.73
2023-03-31T19:39:43.721Z,4.38
2023-03-31T19:44:47.510Z,3.92
2023-03-31T19:49:51.560Z,5.47
2023-03-31T19:54:55.962Z,4.20
2023-03-31T19:59:59.835Z,3.80
2023-03-31T20:05:03.833Z,2.92
2023-03-31T20:10:08.393Z,3.60
2023-03-31T20:15:13.143Z,2.47
2023-03-31T20:20:18.265Z,2.70
2023-03-31T20:25:22.191Z,2.55
2023-03-31T20:30:26.206Z,2.53
2023-03-31T20:35:30.233Z,2.97
2023-03-31T20:40:34.256Z,1.90
2023-03-31T20:45:38.069Z,2.83
2023-03-31T20:50:42.901Z,3.07
2023-03-31T20:55:48.034Z,2.80
2023-03-31T21:00:58.944Z,2.90
2023-03-31T21:06:05.735Z,2.57
2023-03-31T21:11:10.289Z,2.50
2023-03-31T21:16:14.519Z,2.67
2023-03-31T21:21:20.474Z,3.30
2023-03-31T21:26:26.436Z,3.50
2023-03-31T21:31:30.439Z,2.40
2023-03-31T21:36:34.513Z,2.67
2023-03-31T21:41:40.345Z,2.43
2023-03-31T21:46:46.019Z,2.77
2023-03-31T21:51:49.954Z,2.33
2023-03-31T21:56:54.186Z,3.00
2023-03-31T22:01:58.143Z,2.27
2023-03-31T22:07:02.205Z,2.57
2023-03-31T22:12:06.121Z,1.90
2023-03-31T22:17:09.839Z,3.00
2023-03-31T22:22:13.869Z,2.67
2023-03-31T22:27:17.919Z,2.80
2023-03-31T22:32:24.010Z,2.53
2023-03-31T22:37:27.905Z,2.13
2023-03-31T22:42:32.028Z,3.07
2023-03-31T22:47:36.165Z,2.37
2023-03-31T22:52:39.911Z,1.90
2023-03-31T22:57:43.861Z,1.77
2023-03-31T23:02:47.673Z,1.90
2023-03-31T23:07:52.378Z,2.73
2023-03-31T23:12:56.276Z,2.37
2023-03-31T23:18:00.018Z,1.90
2023-03-31T23:23:04.420Z,1.87
2023-03-31T23:28:08.367Z,2.53
2023-03-31T23:33:12.328Z,2.03
2023-03-31T23:38:16.524Z,3.23
2023-03-31T23:43:20.516Z,3.17
2023-03-31T23:48:24.594Z,2.63
2023-03-31T23:53:29.457Z,2.47
2023-03-31T23:58:34.618Z,2.23
